sensor_id;sensor_type;location;lat;lon;timestamp;pressure;altitude;pressure_sealevel;temperature;humidity
39209;BME280;24929;51.982;4.664;2023-05-23T00:02:20;77109.69;;;-143.36;64.54
39209;BME280;24929;51.982;4.664;2023-05-23T00:04:46;77105.66;;;-143.36;64.18
39209;BME280;24929;51.982;4.664;2023-05-23T00:07:12;77107.66;;;-143.36;64.20
39209;BME280;24929;51.982;4.664;2023-05-23T00:09:37;77077.56;;;-143.36;63.65
39209;BME280;24929;51.982;4.664;2023-05-23T00:12:03;77079.56;;;-143.36;64.07
39209;BME280;24929;51.982;4.664;2023-05-23T00:14:28;77077.56;;;-143.36;64.22
39209;BME280;24929;51.982;4.664;2023-05-23T00:16:58;77077.56;;;-143.36;64.40
39209;BME280;24929;51.982;4.664;2023-05-23T00:19:24;77059.50;;;-143.36;63.26
39209;BME280;24929;51.982;4.664;2023-05-23T00:21:50;77109.69;;;-143.36;65.05
39209;BME280;24929;51.982;4.664;2023-05-23T00:24:18;77083.59;;;-143.36;64.27
39209;BME280;24929;51.982;4.664;2023-05-23T00:26:45;77089.59;;;-143.36;64.67
39209;BME280;24929;51.982;4.664;2023-05-23T00:29:10;77075.56;;;-143.36;63.59
39209;BME280;24929;51.982;4.664;2023-05-23T00:31:41;77055.50;;;-143.36;63.06
39209;BME280;24929;51.982;4.664;2023-05-23T00:34:07;77093.63;;;-143.36;63.79
39209;BME280;24929;51.982;4.664;2023-05-23T00:36:32;77061.50;;;-143.36;63.13
39209;BME280;24929;51.982;4.664;2023-05-23T00:39:02;77125.72;;;-143.36;64.93
39209;BME280;24929;51.982;4.664;2023-05-23T00:41:29;77097.63;;;-143.36;63.86
39209;BME280;24929;51.982;4.664;2023-05-23T00:43:56;77051.47;;;-143.36;63.67
39209;BME280;24929;51.982;4.664;2023-05-23T00:46:24;77069.53;;;-143.36;63.86
39209;BME280;24929;51.982;4.664;2023-05-23T00:48:50;77099.66;;;-143.36;64.33
39209;BME280;24929;51.982;4.664;2023-05-23T00:51:15;77099.66;;;-143.36;65.13
39209;BME280;24929;51.982;4.664;2023-05-23T00:53:41;77091.63;;;-143.36;64.25
39209;BME280;24929;51.982;4.664;2023-05-23T00:56:07;77125.72;;;-143.36;65.33
39209;BME280;24929;51.982;4.664;2023-05-23T00:58:33;77105.66;;;-143.36;64.46
39209;BME280;24929;51.982;4.664;2023-05-23T01:00:58;77083.59;;;-143.36;63.86
39209;BME280;24929;51.982;4.664;2023-05-23T01:03:24;77081.59;;;-143.36;63.66
39209;BME280;24929;51.982;4.664;2023-05-23T01:05:53;77087.59;;;-143.36;63.92
39209;BME280;24929;51.982;4.664;2023-05-23T01:08:18;77083.59;;;-143.36;63.75
39209;BME280;24929;51.982;4.664;2023-05-23T01:10:43;77101.66;;;-143.36;64.67
39209;BME280;24929;51.982;4.664;2023-05-23T01:13:22;77051.47;;;-143.36;63.15
39209;BME280;24929;51.982;4.664;2023-05-23T01:15:50;77079.56;;;-143.36;63.64
39209;BME280;24929;51.982;4.664;2023-05-23T01:21:11;77021.38;;;-143.36;62.19
39209;BME280;24929;51.982;4.664;2023-05-23T01:24:53;77033.41;;;-143.36;62.80
39209;BME280;24929;51.982;4.664;2023-05-23T01:29:25;76975.22;;;-143.36;61.18
39209;BME280;24929;51.982;4.664;2023-05-23T01:31:54;77001.31;;;-143.36;61.32
39209;BME280;24929;51.982;4.664;2023-05-23T01:34:21;77029.41;;;-143.36;61.51
39209;BME280;24929;51.982;4.664;2023-05-23T01:36:49;77009.31;;;-143.36;60.71
39209;BME280;24929;51.982;4.664;2023-05-23T01:39:17;77033.41;;;-143.36;61.32
39209;BME280;24929;51.982;4.664;2023-05-23T01:41:43;77071.53;;;-143.36;62.20
39209;BME280;24929;51.982;4.664;2023-05-23T01:44:08;77125.72;;;-143.36;63.21
39209;BME280;24929;51.982;4.664;2023-05-23T01:46:34;77057.50;;;-143.36;61.44
39209;BME280;24929;51.982;4.664;2023-05-23T01:49:05;77099.66;;;-143.36;61.73
39209;BME280;24929;51.982;4.664;2023-05-23T01:51:31;77075.56;;;-143.36;60.18
39209;BME280;24929;51.982;4.664;2023-05-23T01:53:58;77071.53;;;-143.36;60.55
39209;BME280;24929;51.982;4.664;2023-05-23T01:56:26;77033.41;;;-143.36;58.92
39209;BME280;24929;51.982;4.664;2023-05-23T01:58:51;77113.69;;;-143.36;61.04
39209;BME280;24929;51.982;4.664;2023-05-23T02:01:17;77079.56;;;-143.36;60.14
39209;BME280;24929;51.982;4.664;2023-05-23T02:03:43;77073.56;;;-143.36;59.64
39209;BME280;24929;51.982;4.664;2023-05-23T02:06:08;77079.56;;;-143.36;59.49
39209;BME280;24929;51.982;4.664;2023-05-23T02:08:34;77089.59;;;-143.36;59.20
39209;BME280;24929;51.982;4.664;2023-05-23T02:10:59;77029.41;;;-143.36;57.83
39209;BME280;24929;51.982;4.664;2023-05-23T02:13:25;77031.41;;;-143.36;58.08
39209;BME280;24929;51.982;4.664;2023-05-23T02:15:50;77077.56;;;-143.36;58.03
39209;BME280;24929;51.982;4.664;2023-05-23T02:18:15;77077.56;;;-143.36;58.82
39209;BME280;24929;51.982;4.664;2023-05-23T02:20:42;77077.56;;;-143.36;58.96
39209;BME280;24929;51.982;4.664;2023-05-23T02:23:08;77037.44;;;-143.36;57.91
39209;BME280;24929;51.982;4.664;2023-05-23T02:25:33;77087.59;;;-143.36;58.53
39209;BME280;24929;51.982;4.664;2023-05-23T02:27:59;77063.50;;;-143.36;57.89
39209;BME280;24929;51.982;4.664;2023-05-23T02:30:24;77085.59;;;-143.36;58.25
39209;BME280;24929;51.982;4.664;2023-05-23T02:32:49;77087.59;;;-143.36;58.20
39209;BME280;24929;51.982;4.664;2023-05-23T02:35:15;77067.53;;;-143.36;57.25
39209;BME280;24929;51.982;4.664;2023-05-23T02:37:41;77103.66;;;-143.36;56.94
39209;BME280;24929;51.982;4.664;2023-05-23T02:40:07;77187.94;;;-143.36;59.28
39209;BME280;24929;51.982;4.664;2023-05-23T02:42:33;77115.69;;;-143.36;57.65
39209;BME280;24929;51.982;4.664;2023-05-23T02:44:58;77109.69;;;-143.36;57.69
39209;BME280;24929;51.982;4.664;2023-05-23T02:47:24;77177.91;;;-143.36;58.70
39209;BME280;24929;51.982;4.664;2023-05-23T02:49:49;77135.78;;;-143.36;57.14
39209;BME280;24929;51.982;4.664;2023-05-23T02:52:15;77121.72;;;-143.36;57.14
39209;BME280;24929;51.982;4.664;2023-05-23T02:54:41;77129.75;;;-143.36;56.83
39209;BME280;24929;51.982;4.664;2023-05-23T02:57:06;77121.72;;;-143.36;56.56
39209;BME280;24929;51.982;4.664;2023-05-23T02:59:32;77183.94;;;-143.36;57.46
39209;BME280;24929;51.982;4.664;2023-05-23T03:01:57;77181.94;;;-143.36;58.16
39209;BME280;24929;51.982;4.664;2023-05-23T03:04:22;77173.91;;;-143.36;57.56
39209;BME280;24929;51.982;4.664;2023-05-23T03:06:48;77147.81;;;-143.36;56.54
39209;BME280;24929;51.982;4.664;2023-05-23T03:09:14;77133.75;;;-143.36;56.94
39209;BME280;24929;51.982;4.664;2023-05-23T03:11:41;77131.75;;;-143.36;56.76
39209;BME280;24929;51.982;4.664;2023-05-23T03:14:07;77155.84;;;-143.36;56.96
39209;BME280;24929;51.982;4.664;2023-05-23T03:16:32;77137.78;;;-143.36;56.06
39209;BME280;24929;51.982;4.664;2023-05-23T03:18:57;77161.84;;;-143.36;56.67
39209;BME280;24929;51.982;4.664;2023-05-23T03:21:23;77187.94;;;-143.36;57.20
39209;BME280;24929;51.982;4.664;2023-05-23T03:23:49;77165.88;;;-143.36;56.72
39209;BME280;24929;51.982;4.664;2023-05-23T03:26:14;77175.91;;;-143.36;56.51
39209;BME280;24929;51.982;4.664;2023-05-23T03:28:40;77161.84;;;-143.36;55.88
39209;BME280;24929;51.982;4.664;2023-05-23T03:31:05;77198.00;;;-143.36;56.45
39209;BME280;24929;51.982;4.664;2023-05-23T03:33:31;77240.13;;;-143.36;57.68
39209;BME280;24929;51.982;4.664;2023-05-23T03:35:56;77208.03;;;-143.36;57.16
39209;BME280;24929;51.982;4.664;2023-05-23T03:38:21;77232.09;;;-143.36;57.22
39209;BME280;24929;51.982;4.664;2023-05-23T03:40:47;77228.09;;;-143.36;57.04
39209;BME280;24929;51.982;4.664;2023-05-23T03:43:12;77198.00;;;-143.36;56.29
39209;BME280;24929;51.982;4.664;2023-05-23T03:45:37;77206.00;;;-143.36;55.94
39209;BME280;24929;51.982;4.664;2023-05-23T03:48:03;77202.00;;;-143.36;55.76
39209;BME280;24929;51.982;4.664;2023-05-23T03:50:28;77214.03;;;-143.36;55.83
39209;BME280;24929;51.982;4.664;2023-05-23T03:52:54;77262.22;;;-143.36;56.91
39209;BME280;24929;51.982;4.664;2023-05-23T03:55:20;77220.06;;;-143.36;55.29
39209;BME280;24929;51.982;4.664;2023-05-23T03:57:49;77208.03;;;-143.36;55.13
39209;BME280;24929;51.982;4.664;2023-05-23T04:00:16;77254.19;;;-143.36;55.50
39209;BME280;24929;51.982;4.664;2023-05-23T04:02:41;77222.06;;;-143.36;55.02
39209;BME280;24929;51.982;4.664;2023-05-23T04:05:07;77216.06;;;-143.36;54.83
39209;BME280;24929;51.982;4.664;2023-05-23T04:07:33;77228.09;;;-143.36;54.85
39209;BME280;24929;51.982;4.664;2023-05-23T04:09:59;77272.25;;;-143.36;55.28
39209;BME280;24929;51.982;4.664;2023-05-23T04:12:25;77266.22;;;-143.36;54.38
39209;BME280;24929;51.982;4.664;2023-05-23T04:14:50;77294.31;;;-143.36;54.78
39209;BME280;24929;51.982;4.664;2023-05-23T04:17:16;77246.16;;;-143.36;53.69
39209;BME280;24929;51.982;4.664;2023-05-23T04:19:43;77244.16;;;-143.36;52.96
39209;BME280;24929;51.982;4.664;2023-05-23T04:22:08;77268.25;;;-143.36;52.87
39209;BME280;24929;51.982;4.664;2023-05-23T04:24:33;77268.25;;;-143.36;52.76
39209;BME280;24929;51.982;4.664;2023-05-23T04:26:59;77280.28;;;-143.36;52.25
39209;BME280;24929;51.982;4.664;2023-05-23T04:29:24;77282.28;;;-143.36;52.54
39209;BME280;24929;51.982;4.664;2023-05-23T04:31:50;77314.41;;;-143.36;53.17
39209;BME280;24929;51.982;4.664;2023-05-23T04:34:15;77278.28;;;-143.36;51.39
39209;BME280;24929;51.982;4.664;2023-05-23T04:36:41;77294.31;;;-143.36;52.10
39209;BME280;24929;51.982;4.664;2023-05-23T04:39:09;77284.28;;;-143.36;51.51
39209;BME280;24929;51.982;4.664;2023-05-23T04:41:34;77302.34;;;-143.36;51.74
39209;BME280;24929;51.982;4.664;2023-05-23T04:44:01;77306.38;;;-143.36;52.32
39209;BME280;24929;51.982;4.664;2023-05-23T04:46:26;77292.31;;;-143.36;50.88
39209;BME280;24929;51.982;4.664;2023-05-23T04:48:52;77268.25;;;-143.36;50.70
39209;BME280;24929;51.982;4.664;2023-05-23T04:51:18;77326.44;;;-143.36;50.74
39209;BME280;24929;51.982;4.664;2023-05-23T04:53:46;77286.31;;;-143.36;50.67
39209;BME280;24929;51.982;4.664;2023-05-23T04:59:45;77266.22;;;-143.36;51.25
39209;BME280;24929;51.982;4.664;2023-05-23T05:02:12;77304.38;;;-143.36;51.41
39209;BME280;24929;51.982;4.664;2023-05-23T05:04:37;77338.47;;;-143.36;52.36
39209;BME280;24929;51.982;4.664;2023-05-23T05:07:02;77338.47;;;-143.36;51.10
39209;BME280;24929;51.982;4.664;2023-05-23T05:09:29;77312.38;;;-143.36;50.74
39209;BME280;24929;51.982;4.664;2023-05-23T05:11:56;77374.63;;;-143.36;51.43
39209;BME280;24929;51.982;4.664;2023-05-23T05:14:21;77388.66;;;-143.36;51.55
39209;BME280;24929;51.982;4.664;2023-05-23T05:16:46;77340.50;;;-143.36;50.51
39209;BME280;24929;51.982;4.664;2023-05-23T05:19:14;77352.53;;;-143.36;50.19
39209;BME280;24929;51.982;4.664;2023-05-23T05:21:39;77358.56;;;-143.36;50.22
39209;BME280;24929;51.982;4.664;2023-05-23T05:24:05;77344.50;;;-143.36;50.25
39209;BME280;24929;51.982;4.664;2023-05-23T05:26:34;77342.50;;;-143.36;49.93
39209;BME280;24929;51.982;4.664;2023-05-23T05:29:00;77360.56;;;-143.36;49.50
39209;BME280;24929;51.982;4.664;2023-05-23T05:31:26;77374.63;;;-143.36;49.98
39209;BME280;24929;51.982;4.664;2023-05-23T05:33:51;77348.53;;;-143.36;49.59
39209;BME280;24929;51.982;4.664;2023-05-23T05:36:18;77280.28;;;-143.36;48.48
39209;BME280;24929;51.982;4.664;2023-05-23T05:38:44;77322.44;;;-143.36;48.36
39209;BME280;24929;51.982;4.664;2023-05-23T05:41:09;77356.53;;;-143.36;49.60
39209;BME280;24929;51.982;4.664;2023-05-23T05:43:35;77354.53;;;-143.36;49.13
39209;BME280;24929;51.982;4.664;2023-05-23T05:46:00;77348.53;;;-143.36;48.55
39209;BME280;24929;51.982;4.664;2023-05-23T05:54:25;77304.38;;;-143.36;47.73
39209;BME280;24929;51.982;4.664;2023-05-23T05:56:50;77330.44;;;-143.36;47.77
39209;BME280;24929;51.982;4.664;2023-05-23T05:59:16;77346.50;;;-143.36;47.90
39209;BME280;24929;51.982;4.664;2023-05-23T06:01:41;77324.44;;;-143.36;48.14
39209;BME280;24929;51.982;4.664;2023-05-23T06:04:09;77334.47;;;-143.36;48.12
39209;BME280;24929;51.982;4.664;2023-05-23T06:06:34;77332.47;;;-143.36;49.06
39209;BME280;24929;51.982;4.664;2023-05-23T06:09:00;77308.38;;;-143.36;48.49
39209;BME280;24929;51.982;4.664;2023-05-23T06:11:25;77304.38;;;-143.36;48.82
39209;BME280;24929;51.982;4.664;2023-05-23T06:13:50;77312.38;;;-143.36;49.32
39209;BME280;24929;51.982;4.664;2023-05-23T06:16:16;77292.31;;;-143.36;49.10
39209;BME280;24929;51.982;4.664;2023-05-23T06:18:41;77312.38;;;-143.36;50.08
39209;BME280;24929;51.982;4.664;2023-05-23T06:21:08;77316.41;;;-143.36;50.22
39209;BME280;24929;51.982;4.664;2023-05-23T06:23:34;77382.63;;;-143.36;51.16
39209;BME280;24929;51.982;4.664;2023-05-23T06:25:59;77380.63;;;-143.36;51.13
39209;BME280;24929;51.982;4.664;2023-05-23T06:28:24;77374.63;;;-143.36;50.86
39209;BME280;24929;51.982;4.664;2023-05-23T06:30:50;77386.66;;;-143.36;51.28
39209;BME280;24929;51.982;4.664;2023-05-23T06:33:15;77364.56;;;-143.36;51.09
39209;BME280;24929;51.982;4.664;2023-05-23T06:35:41;77358.56;;;-143.36;51.50
39209;BME280;24929;51.982;4.664;2023-05-23T06:38:07;77350.53;;;-143.36;51.70
39209;BME280;24929;51.982;4.664;2023-05-23T06:40:32;77412.75;;;-143.36;52.71
39209;BME280;24929;51.982;4.664;2023-05-23T06:42:58;77356.53;;;-143.36;51.72
39209;BME280;24929;51.982;4.664;2023-05-23T06:45:23;77352.53;;;-143.36;51.73
39209;BME280;24929;51.982;4.664;2023-05-23T06:47:49;77386.66;;;-143.36;52.23
39209;BME280;24929;51.982;4.664;2023-05-23T06:50:14;77400.72;;;-143.36;52.80
39209;BME280;24929;51.982;4.664;2023-05-23T06:52:39;77378.63;;;-143.36;52.13
39209;BME280;24929;51.982;4.664;2023-05-23T06:55:07;77366.59;;;-143.36;52.03
39209;BME280;24929;51.982;4.664;2023-05-23T06:57:32;77356.53;;;-143.36;52.12
39209;BME280;24929;51.982;4.664;2023-05-23T06:59:58;77350.53;;;-143.36;51.43
39209;BME280;24929;51.982;4.664;2023-05-23T07:02:23;77366.59;;;-143.36;51.54
39209;BME280;24929;51.982;4.664;2023-05-23T07:04:48;77372.59;;;-143.36;51.71
39209;BME280;24929;51.982;4.664;2023-05-23T07:07:14;77322.44;;;-143.36;50.37
39209;BME280;24929;51.982;4.664;2023-05-23T07:09:39;77298.34;;;-143.36;49.25
39209;BME280;24929;51.982;4.664;2023-05-23T07:12:06;77300.34;;;-143.36;47.61
39209;BME280;24929;51.982;4.664;2023-05-23T07:14:32;77302.34;;;-143.36;46.37
39209;BME280;24929;51.982;4.664;2023-05-23T07:17:00;77266.22;;;-143.36;45.92
39209;BME280;24929;51.982;4.664;2023-05-23T07:19:26;77308.38;;;-143.36;45.29
39209;BME280;24929;51.982;4.664;2023-05-23T07:21:52;77260.22;;;-143.36;45.53
39209;BME280;24929;51.982;4.664;2023-05-23T07:24:17;77262.22;;;-143.36;44.73
39209;BME280;24929;51.982;4.664;2023-05-23T07:26:43;77266.22;;;-143.36;43.82
39209;BME280;24929;51.982;4.664;2023-05-23T07:29:09;77264.22;;;-143.36;43.58
39209;BME280;24929;51.982;4.664;2023-05-23T07:31:35;77210.03;;;-143.36;43.63
39209;BME280;24929;51.982;4.664;2023-05-23T07:34:01;77220.06;;;-143.36;43.04
39209;BME280;24929;51.982;4.664;2023-05-23T07:36:26;77218.06;;;-143.36;42.57
39209;BME280;24929;51.982;4.664;2023-05-23T07:38:53;77206.00;;;-143.36;42.30
39209;BME280;24929;51.982;4.664;2023-05-23T07:41:18;77198.00;;;-143.36;42.15
39209;BME280;24929;51.982;4.664;2023-05-23T07:43:44;77232.09;;;-143.36;41.06
39209;BME280;24929;51.982;4.664;2023-05-23T07:46:09;77228.09;;;-143.36;42.15
39209;BME280;24929;51.982;4.664;2023-05-23T07:48:35;77212.03;;;-143.36;41.60
39209;BME280;24929;51.982;4.664;2023-05-23T07:51:00;77189.97;;;-143.36;41.97
39209;BME280;24929;51.982;4.664;2023-05-23T07:53:25;77200.00;;;-143.36;40.97
39209;BME280;24929;51.982;4.664;2023-05-23T07:55:51;77204.00;;;-143.36;40.81
39209;BME280;24929;51.982;4.664;2023-05-23T07:58:16;77212.03;;;-143.36;40.13
39209;BME280;24929;51.982;4.664;2023-05-23T08:00:44;77157.84;;;-143.36;40.35
39209;BME280;24929;51.982;4.664;2023-05-23T08:03:09;77169.88;;;-143.36;41.13
39209;BME280;24929;51.982;4.664;2023-05-23T08:05:35;77181.94;;;-143.36;40.66
39209;BME280;24929;51.982;4.664;2023-05-23T08:08:01;77167.88;;;-143.36;40.44
39209;BME280;24929;51.982;4.664;2023-05-23T08:10:26;77149.81;;;-143.36;40.26
39209;BME280;24929;51.982;4.664;2023-05-23T08:12:53;77119.72;;;-143.36;39.74
39209;BME280;24929;51.982;4.664;2023-05-23T08:15:19;77115.69;;;-143.36;39.25
39209;BME280;24929;51.982;4.664;2023-05-23T08:17:45;77069.53;;;-143.36;39.16
39209;BME280;24929;51.982;4.664;2023-05-23T08:20:10;77037.44;;;-143.36;39.52
39209;BME280;24929;51.982;4.664;2023-05-23T08:22:36;77027.38;;;-143.36;38.46
39209;BME280;24929;51.982;4.664;2023-05-23T08:25:01;77057.50;;;-143.36;39.16
39209;BME280;24929;51.982;4.664;2023-05-23T08:27:27;76981.22;;;-143.36;38.74
39209;BME280;24929;51.982;4.664;2023-05-23T08:29:54;77017.34;;;-143.36;38.61
39209;BME280;24929;51.982;4.664;2023-05-23T08:32:19;77043.44;;;-143.36;38.54
39209;BME280;24929;51.982;4.664;2023-05-23T08:34:45;77063.50;;;-143.36;39.12
39209;BME280;24929;51.982;4.664;2023-05-23T08:37:10;77123.72;;;-143.36;38.87
39209;BME280;24929;51.982;4.664;2023-05-23T08:39:36;77103.66;;;-143.36;38.51
39209;BME280;24929;51.982;4.664;2023-05-23T08:42:01;77093.63;;;-143.36;38.50
39209;BME280;24929;51.982;4.664;2023-05-23T08:44:27;77077.56;;;-143.36;38.47
39209;BME280;24929;51.982;4.664;2023-05-23T08:46:53;77119.72;;;-143.36;38.70
39209;BME280;24929;51.982;4.664;2023-05-23T08:49:18;77145.81;;;-143.36;38.90
39209;BME280;24929;51.982;4.664;2023-05-23T08:51:48;77081.59;;;-143.36;39.02
39209;BME280;24929;51.982;4.664;2023-05-23T08:54:19;77093.63;;;-143.36;37.71
39209;BME280;24929;51.982;4.664;2023-05-23T08:56:47;77127.75;;;-143.36;38.25
39209;BME280;24929;51.982;4.664;2023-05-23T08:59:14;77107.66;;;-143.36;38.32
39209;BME280;24929;51.982;4.664;2023-05-23T09:01:41;77139.78;;;-143.36;38.61
39209;BME280;24929;51.982;4.664;2023-05-23T09:04:08;77113.69;;;-143.36;38.47
39209;BME280;24929;51.982;4.664;2023-05-23T09:06:34;77079.56;;;-143.36;37.63
39209;BME280;24929;51.982;4.664;2023-05-23T09:08:59;77103.66;;;-143.36;37.69
39209;BME280;24929;51.982;4.664;2023-05-23T09:11:25;77021.38;;;-143.36;38.13
39209;BME280;24929;51.982;4.664;2023-05-23T09:13:51;76935.06;;;-143.36;36.91
39209;BME280;24929;51.982;4.664;2023-05-23T09:16:18;76929.06;;;-143.36;36.37
39209;BME280;24929;51.982;4.664;2023-05-23T09:18:44;77013.34;;;-143.36;36.33
39209;BME280;24929;51.982;4.664;2023-05-23T09:21:11;76967.19;;;-143.36;36.26
39209;BME280;24929;51.982;4.664;2023-05-23T09:23:41;76947.13;;;-143.36;36.66
39209;BME280;24929;51.982;4.664;2023-05-23T09:26:08;77035.41;;;-143.36;36.93
39209;BME280;24929;51.982;4.664;2023-05-23T09:28:35;77067.53;;;-143.36;37.48
39209;BME280;24929;51.982;4.664;2023-05-23T09:31:03;77067.53;;;-143.36;36.89
39209;BME280;24929;51.982;4.664;2023-05-23T09:33:46;76999.28;;;-143.36;36.48
39209;BME280;24929;51.982;4.664;2023-05-23T09:36:12;77039.44;;;-143.36;35.59
39209;BME280;24929;51.982;4.664;2023-05-23T09:38:41;77013.34;;;-143.36;35.63
39209;BME280;24929;51.982;4.664;2023-05-23T09:41:08;76977.22;;;-143.36;36.48
39209;BME280;24929;51.982;4.664;2023-05-23T09:43:48;77003.31;;;-143.36;35.64
39209;BME280;24929;51.982;4.664;2023-05-23T09:46:15;76886.91;;;-143.36;35.51
39209;BME280;24929;51.982;4.664;2023-05-23T09:48:51;76788.56;;;-143.36;35.12
39209;BME280;24929;51.982;4.664;2023-05-23T09:51:19;76814.66;;;-143.36;34.95
39209;BME280;24929;51.982;4.664;2023-05-23T09:53:46;76933.06;;;-143.36;35.67
39209;BME280;24929;51.982;4.664;2023-05-23T09:56:12;76884.91;;;-143.36;36.18
39209;BME280;24929;51.982;4.664;2023-05-23T09:58:48;76870.84;;;-143.36;35.24
39209;BME280;24929;51.982;4.664;2023-05-23T10:01:14;76900.97;;;-143.36;35.17
39209;BME280;24929;51.982;4.664;2023-05-23T10:03:52;76860.81;;;-143.36;35.35
39209;BME280;24929;51.982;4.664;2023-05-23T10:06:29;76828.72;;;-143.36;36.21
39209;BME280;24929;51.982;4.664;2023-05-23T10:09:00;76896.94;;;-143.36;36.50
39209;BME280;24929;51.982;4.664;2023-05-23T10:14:08;76935.06;;;-143.36;37.27
39209;BME280;24929;51.982;4.664;2023-05-23T10:19:43;76828.72;;;-143.36;35.99
39209;BME280;24929;51.982;4.664;2023-05-23T10:22:12;76894.94;;;-143.36;36.56
39209;BME280;24929;51.982;4.664;2023-05-23T10:24:41;76894.94;;;-143.36;36.24
39209;BME280;24929;51.982;4.664;2023-05-23T10:27:08;76898.94;;;-143.36;36.58
39209;BME280;24929;51.982;4.664;2023-05-23T10:29:35;76915.00;;;-143.36;37.02
39209;BME280;24929;51.982;4.664;2023-05-23T10:32:01;76874.88;;;-143.36;36.81
39209;BME280;24929;51.982;4.664;2023-05-23T10:37:00;76927.03;;;-143.36;37.52
39209;BME280;24929;51.982;4.664;2023-05-23T10:39:41;76834.72;;;-143.36;37.08
39209;BME280;24929;51.982;4.664;2023-05-23T10:42:17;76866.84;;;-143.36;36.19
39209;BME280;24929;51.982;4.664;2023-05-23T10:44:43;76947.13;;;-143.36;36.35
39209;BME280;24929;51.982;4.664;2023-05-23T10:47:09;76870.84;;;-143.36;37.06
39209;BME280;24929;51.982;4.664;2023-05-23T10:49:44;76888.91;;;-143.36;36.39
39209;BME280;24929;51.982;4.664;2023-05-23T10:52:13;76868.84;;;-143.36;36.65
39209;BME280;24929;51.982;4.664;2023-05-23T10:54:45;76884.91;;;-143.36;36.37
39209;BME280;24929;51.982;4.664;2023-05-23T10:57:15;76900.97;;;-143.36;36.91
39209;BME280;24929;51.982;4.664;2023-05-23T10:59:41;76931.06;;;-143.36;36.75
39209;BME280;24929;51.982;4.664;2023-05-23T11:02:12;76858.81;;;-143.36;36.56
39209;BME280;24929;51.982;4.664;2023-05-23T11:04:41;76870.84;;;-143.36;36.16
39209;BME280;24929;51.982;4.664;2023-05-23T11:07:29;76796.59;;;-143.36;35.99
39209;BME280;24929;51.982;4.664;2023-05-23T11:10:03;76860.81;;;-143.36;35.21
39209;BME280;24929;51.982;4.664;2023-05-23T11:12:40;76812.66;;;-143.36;35.76
39209;BME280;24929;51.982;4.664;2023-05-23T11:15:22;76754.44;;;-143.36;35.83
39209;BME280;24929;51.982;4.664;2023-05-23T11:17:52;76756.47;;;-143.36;35.64
39209;BME280;24929;51.982;4.664;2023-05-23T11:20:29;76720.34;;;-143.36;33.56
39209;BME280;24929;51.982;4.664;2023-05-23T11:22:59;76692.25;;;-143.36;34.40
39209;BME280;24929;51.982;4.664;2023-05-23T11:25:50;76704.28;;;-143.36;34.78
39209;BME280;24929;51.982;4.664;2023-05-23T11:28:16;76766.50;;;-143.36;34.56
39209;BME280;24929;51.982;4.664;2023-05-23T11:30:43;76692.25;;;-143.36;34.84
39209;BME280;24929;51.982;4.664;2023-05-23T11:33:12;76688.22;;;-143.36;34.60
39209;BME280;24929;51.982;4.664;2023-05-23T11:35:40;76780.53;;;-143.36;34.62
39209;BME280;24929;51.982;4.664;2023-05-23T11:38:07;76886.91;;;-143.36;35.32
39209;BME280;24929;51.982;4.664;2023-05-23T11:43:07;76768.50;;;-143.36;35.18
39209;BME280;24929;51.982;4.664;2023-05-23T11:45:35;76720.34;;;-143.36;35.39
39209;BME280;24929;51.982;4.664;2023-05-23T11:48:11;76628.03;;;-143.36;33.88
39209;BME280;24929;51.982;4.664;2023-05-23T11:50:50;76736.38;;;-143.36;34.10
39209;BME280;24929;51.982;4.664;2023-05-23T11:53:17;76898.94;;;-143.36;34.58
39209;BME280;24929;51.982;4.664;2023-05-23T11:55:56;76826.69;;;-143.36;34.86
39209;BME280;24929;51.982;4.664;2023-05-23T11:58:27;76816.66;;;-143.36;34.67
39209;BME280;24929;51.982;4.664;2023-05-23T12:01:07;76850.78;;;-143.36;34.73
39209;BME280;24929;51.982;4.664;2023-05-23T12:03:34;76798.59;;;-143.36;34.92
39209;BME280;24929;51.982;4.664;2023-05-23T12:06:00;76786.56;;;-143.36;35.12
39209;BME280;24929;51.982;4.664;2023-05-23T12:08:26;76842.75;;;-143.36;34.14
39209;BME280;24929;51.982;4.664;2023-05-23T12:10:56;76830.72;;;-143.36;34.46
39209;BME280;24929;51.982;4.664;2023-05-23T12:13:23;76902.97;;;-143.36;35.16
39209;BME280;24929;51.982;4.664;2023-05-23T12:15:53;76862.81;;;-143.36;35.27
39209;BME280;24929;51.982;4.664;2023-05-23T12:18:19;76832.72;;;-143.36;34.26
39209;BME280;24929;51.982;4.664;2023-05-23T12:20:47;76892.94;;;-143.36;34.76
39209;BME280;24929;51.982;4.664;2023-05-23T12:23:23;76902.97;;;-143.36;35.65
39209;BME280;24929;51.982;4.664;2023-05-23T12:25:50;76941.09;;;-143.36;35.23
39209;BME280;24929;51.982;4.664;2023-05-23T12:28:16;76987.25;;;-143.36;34.98
39209;BME280;24929;51.982;4.664;2023-05-23T12:30:42;76927.03;;;-143.36;35.46
39209;BME280;24929;51.982;4.664;2023-05-23T12:33:08;76874.88;;;-143.36;35.32
39209;BME280;24929;51.982;4.664;2023-05-23T12:35:34;76850.78;;;-143.36;34.82
39209;BME280;24929;51.982;4.664;2023-05-23T12:38:01;76790.56;;;-143.36;35.76
39209;BME280;24929;51.982;4.664;2023-05-23T12:40:27;76746.44;;;-143.36;35.07
39209;BME280;24929;51.982;4.664;2023-05-23T12:42:55;76780.53;;;-143.36;34.98
39209;BME280;24929;51.982;4.664;2023-05-23T12:45:23;76840.75;;;-143.36;35.07
39209;BME280;24929;51.982;4.664;2023-05-23T12:47:49;76925.03;;;-143.36;36.59
39209;BME280;24929;51.982;4.664;2023-05-23T12:50:15;76904.97;;;-143.36;36.07
39209;BME280;24929;51.982;4.664;2023-05-23T12:52:41;76971.19;;;-143.36;35.56
39209;BME280;24929;51.982;4.664;2023-05-23T12:55:08;76856.81;;;-143.36;35.74
39209;BME280;24929;51.982;4.664;2023-05-23T12:57:36;76955.13;;;-143.36;36.02
39209;BME280;24929;51.982;4.664;2023-05-23T13:00:18;76846.78;;;-143.36;35.38
39209;BME280;24929;51.982;4.664;2023-05-23T13:03:08;76790.56;;;-143.36;35.28
39209;BME280;24929;51.982;4.664;2023-05-23T13:05:42;76686.22;;;-143.36;35.05
39209;BME280;24929;51.982;4.664;2023-05-23T13:08:47;76670.16;;;-143.36;34.34